sensor_id;sensor_type;location;lat;lon;timestamp;P1;durP1;ratioP1;P2;durP2;ratioP2
49722;SDS011;43484;43.608;1.458;2023-11-19T00:01:05;24.10;;;15.27;;
49722;SDS011;43484;43.608;1.458;2023-11-19T00:03:32;25.88;;;15.30;;
49722;SDS011;43484;43.608;1.458;2023-11-19T00:05:59;27.30;;;15.35;;
49722;SDS011;43484;43.608;1.458;2023-11-19T00:08:26;25.42;;;13.93;;
49722;SDS011;43484;43.608;1.458;2023-11-19T00:10:53;25.73;;;14.75;;
49722;SDS011;43484;43.608;1.458;2023-11-19T00:13:19;23.05;;;12.98;;
49722;SDS011;43484;43.608;1.458;2023-11-19T00:15:46;22.77;;;13.98;;
49722;SDS011;43484;43.608;1.458;2023-11-19T00:18:14;24.58;;;14.57;;
49722;SDS011;43484;43.608;1.458;2023-11-19T00:20:41;29.58;;;16.02;;
49722;SDS011;43484;43.608;1.458;2023-11-19T00:23:10;24.67;;;14.07;;
49722;SDS011;43484;43.608;1.458;2023-11-19T00:25:37;24.00;;;14.15;;
49722;SDS011;43484;43.608;1.458;2023-11-19T00:28:05;23.27;;;13.82;;
49722;SDS011;43484;43.608;1.458;2023-11-19T00:30:31;26.15;;;14.40;;
49722;SDS011;43484;43.608;1.458;2023-11-19T00:32:57;26.83;;;14.02;;
49722;SDS011;43484;43.608;1.458;2023-11-19T00:35:24;26.05;;;13.40;;
49722;SDS011;43484;43.608;1.458;2023-11-19T00:37:50;21.48;;;14.15;;
49722;SDS011;43484;43.608;1.458;2023-11-19T00:40:17;31.95;;;15.07;;
49722;SDS011;43484;43.608;1.458;2023-11-19T00:42:45;29.20;;;13.45;;
49722;SDS011;43484;43.608;1.458;2023-11-19T00:45:11;25.55;;;13.30;;
49722;SDS011;43484;43.608;1.458;2023-11-19T00:47:39;22.55;;;13.23;;
49722;SDS011;43484;43.608;1.458;2023-11-19T00:50:06;27.77;;;14.25;;
49722;SDS011;43484;43.608;1.458;2023-11-19T00:52:35;22.38;;;13.25;;
49722;SDS011;43484;43.608;1.458;2023-11-19T00:55:03;26.63;;;14.05;;
49722;SDS011;43484;43.608;1.458;2023-11-19T00:57:30;23.48;;;12.80;;
49722;SDS011;43484;43.608;1.458;2023-11-19T00:59:59;28.92;;;13.65;;
49722;SDS011;43484;43.608;1.458;2023-11-19T01:02:25;25.30;;;13.63;;
49722;SDS011;43484;43.608;1.458;2023-11-19T01:04:52;24.13;;;13.20;;
49722;SDS011;43484;43.608;1.458;2023-11-19T01:07:19;20.52;;;12.85;;
49722;SDS011;43484;43.608;1.458;2023-11-19T01:09:45;20.25;;;12.82;;
49722;SDS011;43484;43.608;1.458;2023-11-19T01:12:12;21.05;;;12.88;;
49722;SDS011;43484;43.608;1.458;2023-11-19T01:14:38;23.77;;;12.23;;
49722;SDS011;43484;43.608;1.458;2023-11-19T01:17:05;22.52;;;13.65;;
49722;SDS011;43484;43.608;1.458;2023-11-19T01:19:32;22.65;;;13.02;;
49722;SDS011;43484;43.608;1.458;2023-11-19T01:21:58;27.60;;;12.20;;
49722;SDS011;43484;43.608;1.458;2023-11-19T01:24:25;20.95;;;11.52;;
49722;SDS011;43484;43.608;1.458;2023-11-19T01:26:54;22.48;;;11.40;;
49722;SDS011;43484;43.608;1.458;2023-11-19T01:29:21;16.67;;;11.45;;
49722;SDS011;43484;43.608;1.458;2023-11-19T01:31:47;23.00;;;11.80;;
49722;SDS011;43484;43.608;1.458;2023-11-19T01:34:14;19.58;;;10.88;;
49722;SDS011;43484;43.608;1.458;2023-11-19T01:36:40;22.75;;;11.60;;
49722;SDS011;43484;43.608;1.458;2023-11-19T01:39:07;19.70;;;11.27;;
49722;SDS011;43484;43.608;1.458;2023-11-19T01:41:34;21.05;;;12.00;;
49722;SDS011;43484;43.608;1.458;2023-11-19T01:44:01;18.48;;;10.98;;
49722;SDS011;43484;43.608;1.458;2023-11-19T01:46:27;22.65;;;10.88;;
49722;SDS011;43484;43.608;1.458;2023-11-19T01:48:55;20.27;;;10.45;;
49722;SDS011;43484;43.608;1.458;2023-11-19T01:51:22;19.70;;;11.00;;
49722;SDS011;43484;43.608;1.458;2023-11-19T01:53:48;19.10;;;9.93;;
49722;SDS011;43484;43.608;1.458;2023-11-19T01:56:15;21.55;;;10.15;;
49722;SDS011;43484;43.608;1.458;2023-11-19T01:58:43;17.65;;;9.85;;
49722;SDS011;43484;43.608;1.458;2023-11-19T02:01:11;18.38;;;10.10;;
49722;SDS011;43484;43.608;1.458;2023-11-19T02:03:38;19.08;;;9.07;;
49722;SDS011;43484;43.608;1.458;2023-11-19T02:06:05;22.63;;;9.45;;
49722;SDS011;43484;43.608;1.458;2023-11-19T02:08:33;18.90;;;9.48;;
49722;SDS011;43484;43.608;1.458;2023-11-19T02:11:00;20.50;;;9.57;;
49722;SDS011;43484;43.608;1.458;2023-11-19T02:13:26;21.20;;;10.63;;
49722;SDS011;43484;43.608;1.458;2023-11-19T02:15:55;17.92;;;9.80;;
49722;SDS011;43484;43.608;1.458;2023-11-19T02:18:22;15.57;;;9.82;;
49722;SDS011;43484;43.608;1.458;2023-11-19T02:20:49;22.58;;;10.70;;
49722;SDS011;43484;43.608;1.458;2023-11-19T02:23:16;18.20;;;10.10;;
49722;SDS011;43484;43.608;1.458;2023-11-19T02:25:46;19.30;;;9.65;;
49722;SDS011;43484;43.608;1.458;2023-11-19T02:28:13;18.30;;;8.88;;
49722;SDS011;43484;43.608;1.458;2023-11-19T02:30:40;18.90;;;9.55;;
49722;SDS011;43484;43.608;1.458;2023-11-19T02:33:07;20.70;;;9.45;;
49722;SDS011;43484;43.608;1.458;2023-11-19T02:35:34;18.33;;;9.75;;
49722;SDS011;43484;43.608;1.458;2023-11-19T02:38:01;15.00;;;8.95;;
49722;SDS011;43484;43.608;1.458;2023-11-19T02:40:30;18.67;;;9.05;;
49722;SDS011;43484;43.608;1.458;2023-11-19T02:42:56;16.67;;;9.05;;
49722;SDS011;43484;43.608;1.458;2023-11-19T02:45:24;15.00;;;7.78;;
49722;SDS011;43484;43.608;1.458;2023-11-19T02:47:51;12.23;;;7.88;;
49722;SDS011;43484;43.608;1.458;2023-11-19T02:50:19;18.60;;;8.48;;
49722;SDS011;43484;43.608;1.458;2023-11-19T02:52:52;17.27;;;9.02;;
49722;SDS011;43484;43.608;1.458;2023-11-19T02:55:19;13.82;;;8.30;;
49722;SDS011;43484;43.608;1.458;2023-11-19T02:57:46;16.00;;;9.52;;
49722;SDS011;43484;43.608;1.458;2023-11-19T03:00:15;19.50;;;9.30;;
49722;SDS011;43484;43.608;1.458;2023-11-19T03:02:42;17.02;;;8.88;;
49722;SDS011;43484;43.608;1.458;2023-11-19T03:05:15;16.15;;;8.95;;
49722;SDS011;43484;43.608;1.458;2023-11-19T03:07:43;14.10;;;8.70;;
49722;SDS011;43484;43.608;1.458;2023-11-19T03:10:10;14.55;;;8.73;;
49722;SDS011;43484;43.608;1.458;2023-11-19T03:12:40;17.27;;;9.15;;
49722;SDS011;43484;43.608;1.458;2023-11-19T03:15:07;14.02;;;8.20;;
49722;SDS011;43484;43.608;1.458;2023-11-19T03:17:36;13.93;;;8.32;;
49722;SDS011;43484;43.608;1.458;2023-11-19T03:20:04;21.92;;;8.38;;
49722;SDS011;43484;43.608;1.458;2023-11-19T03:22:32;14.57;;;7.75;;
49722;SDS011;43484;43.608;1.458;2023-11-19T03:25:02;16.98;;;8.70;;
49722;SDS011;43484;43.608;1.458;2023-11-19T03:27:28;17.73;;;8.93;;
49722;SDS011;43484;43.608;1.458;2023-11-19T03:29:56;12.93;;;8.05;;
49722;SDS011;43484;43.608;1.458;2023-11-19T03:32:22;15.30;;;8.52;;
49722;SDS011;43484;43.608;1.458;2023-11-19T03:34:48;16.35;;;9.05;;
49722;SDS011;43484;43.608;1.458;2023-11-19T03:37:15;20.13;;;9.68;;
49722;SDS011;43484;43.608;1.458;2023-11-19T03:39:43;18.65;;;9.30;;
49722;SDS011;43484;43.608;1.458;2023-11-19T03:42:10;18.40;;;8.70;;
49722;SDS011;43484;43.608;1.458;2023-11-19T03:44:39;17.52;;;8.35;;
49722;SDS011;43484;43.608;1.458;2023-11-19T03:47:06;14.98;;;8.25;;
49722;SDS011;43484;43.608;1.458;2023-11-19T03:49:32;17.08;;;8.40;;
49722;SDS011;43484;43.608;1.458;2023-11-19T03:51:59;14.30;;;7.10;;
49722;SDS011;43484;43.608;1.458;2023-11-19T03:54:26;17.10;;;8.63;;
49722;SDS011;43484;43.608;1.458;2023-11-19T03:56:53;18.40;;;7.88;;
49722;SDS011;43484;43.608;1.458;2023-11-19T03:59:20;11.68;;;7.63;;
49722;SDS011;43484;43.608;1.458;2023-11-19T04:01:46;15.25;;;8.38;;
49722;SDS011;43484;43.608;1.458;2023-11-19T04:04:13;16.17;;;7.55;;
49722;SDS011;43484;43.608;1.458;2023-11-19T04:06:40;10.02;;;7.40;;
49722;SDS011;43484;43.608;1.458;2023-11-19T04:09:07;16.75;;;7.07;;
49722;SDS011;43484;43.608;1.458;2023-11-19T04:11:35;13.63;;;8.13;;
49722;SDS011;43484;43.608;1.458;2023-11-19T04:14:01;20.33;;;8.95;;
49722;SDS011;43484;43.608;1.458;2023-11-19T04:16:28;15.23;;;9.15;;
49722;SDS011;43484;43.608;1.458;2023-11-19T04:18:55;14.35;;;8.07;;
49722;SDS011;43484;43.608;1.458;2023-11-19T04:21:22;17.60;;;8.13;;
49722;SDS011;43484;43.608;1.458;2023-11-19T04:23:49;17.50;;;8.75;;
49722;SDS011;43484;43.608;1.458;2023-11-19T04:26:16;14.50;;;8.80;;
49722;SDS011;43484;43.608;1.458;2023-11-19T04:28:42;15.45;;;7.90;;
49722;SDS011;43484;43.608;1.458;2023-11-19T04:31:08;17.40;;;8.48;;
49722;SDS011;43484;43.608;1.458;2023-11-19T04:33:35;12.13;;;7.80;;
49722;SDS011;43484;43.608;1.458;2023-11-19T04:36:02;17.65;;;8.32;;
49722;SDS011;43484;43.608;1.458;2023-11-19T04:38:28;16.25;;;8.27;;
49722;SDS011;43484;43.608;1.458;2023-11-19T04:40:55;16.17;;;8.05;;
49722;SDS011;43484;43.608;1.458;2023-11-19T04:43:23;14.82;;;10.23;;
49722;SDS011;43484;43.608;1.458;2023-11-19T04:45:50;16.83;;;9.98;;
49722;SDS011;43484;43.608;1.458;2023-11-19T04:48:16;17.95;;;8.77;;
49722;SDS011;43484;43.608;1.458;2023-11-19T04:50:43;18.35;;;9.40;;
49722;SDS011;43484;43.608;1.458;2023-11-19T04:53:09;13.80;;;9.05;;
49722;SDS011;43484;43.608;1.458;2023-11-19T04:55:36;13.10;;;8.68;;
49722;SDS011;43484;43.608;1.458;2023-11-19T04:58:03;18.10;;;9.68;;
49722;SDS011;43484;43.608;1.458;2023-11-19T05:00:29;18.25;;;10.15;;
49722;SDS011;43484;43.608;1.458;2023-11-19T05:02:56;18.77;;;9.80;;
49722;SDS011;43484;43.608;1.458;2023-11-19T05:05:22;16.20;;;10.68;;
49722;SDS011;43484;43.608;1.458;2023-11-19T05:07:49;16.92;;;10.18;;
49722;SDS011;43484;43.608;1.458;2023-11-19T05:10:15;17.45;;;10.40;;
49722;SDS011;43484;43.608;1.458;2023-11-19T05:12:42;21.35;;;13.10;;
49722;SDS011;43484;43.608;1.458;2023-11-19T05:15:08;20.67;;;10.68;;
49722;SDS011;43484;43.608;1.458;2023-11-19T05:17:35;22.90;;;11.25;;
49722;SDS011;43484;43.608;1.458;2023-11-19T05:20:04;24.15;;;11.68;;
49722;SDS011;43484;43.608;1.458;2023-11-19T05:22:31;20.02;;;11.35;;
49722;SDS011;43484;43.608;1.458;2023-11-19T05:24:58;18.75;;;11.45;;
49722;SDS011;43484;43.608;1.458;2023-11-19T05:27:25;18.33;;;11.68;;
49722;SDS011;43484;43.608;1.458;2023-11-19T05:29:53;19.48;;;10.85;;
49722;SDS011;43484;43.608;1.458;2023-11-19T05:32:19;19.13;;;11.48;;
49722;SDS011;43484;43.608;1.458;2023-11-19T05:34:46;26.75;;;12.90;;
49722;SDS011;43484;43.608;1.458;2023-11-19T05:37:15;27.80;;;11.88;;
49722;SDS011;43484;43.608;1.458;2023-11-19T05:39:42;21.17;;;12.95;;
49722;SDS011;43484;43.608;1.458;2023-11-19T05:42:08;15.77;;;12.07;;
49722;SDS011;43484;43.608;1.458;2023-11-19T05:44:35;20.23;;;12.57;;
49722;SDS011;43484;43.608;1.458;2023-11-19T05:47:06;21.67;;;11.50;;
49722;SDS011;43484;43.608;1.458;2023-11-19T05:49:33;18.10;;;11.15;;
49722;SDS011;43484;43.608;1.458;2023-11-19T05:52:00;19.27;;;11.18;;
49722;SDS011;43484;43.608;1.458;2023-11-19T05:54:29;15.32;;;10.80;;
49722;SDS011;43484;43.608;1.458;2023-11-19T05:56:57;16.45;;;10.95;;
49722;SDS011;43484;43.608;1.458;2023-11-19T05:59:23;20.85;;;10.57;;
49722;SDS011;43484;43.608;1.458;2023-11-19T06:01:50;16.65;;;9.73;;
49722;SDS011;43484;43.608;1.458;2023-11-19T06:04:17;17.35;;;10.73;;
49722;SDS011;43484;43.608;1.458;2023-11-19T06:06:43;22.50;;;11.45;;
49722;SDS011;43484;43.608;1.458;2023-11-19T06:09:10;21.27;;;11.70;;
49722;SDS011;43484;43.608;1.458;2023-11-19T06:11:39;16.50;;;10.15;;
49722;SDS011;43484;43.608;1.458;2023-11-19T06:14:06;16.75;;;11.02;;
49722;SDS011;43484;43.608;1.458;2023-11-19T06:16:33;16.58;;;10.80;;
49722;SDS011;43484;43.608;1.458;2023-11-19T06:19:00;21.70;;;11.18;;
49722;SDS011;43484;43.608;1.458;2023-11-19T06:21:27;18.58;;;11.15;;
49722;SDS011;43484;43.608;1.458;2023-11-19T06:23:53;28.52;;;11.35;;
49722;SDS011;43484;43.608;1.458;2023-11-19T06:26:20;27.05;;;11.77;;
49722;SDS011;43484;43.608;1.458;2023-11-19T06:28:48;17.10;;;10.98;;
49722;SDS011;43484;43.608;1.458;2023-11-19T06:31:14;18.15;;;10.07;;
49722;SDS011;43484;43.608;1.458;2023-11-19T06:33:42;17.02;;;10.30;;
49722;SDS011;43484;43.608;1.458;2023-11-19T06:36:09;21.00;;;10.65;;
49722;SDS011;43484;43.608;1.458;2023-11-19T06:38:36;19.63;;;11.05;;
49722;SDS011;43484;43.608;1.458;2023-11-19T06:41:05;17.80;;;11.35;;
49722;SDS011;43484;43.608;1.458;2023-11-19T06:43:31;17.75;;;10.75;;
49722;SDS011;43484;43.608;1.458;2023-11-19T06:46:02;20.13;;;11.05;;
49722;SDS011;43484;43.608;1.458;2023-11-19T06:48:32;16.67;;;11.27;;
49722;SDS011;43484;43.608;1.458;2023-11-19T06:50:59;22.63;;;11.38;;
49722;SDS011;43484;43.608;1.458;2023-11-19T06:53:25;22.73;;;11.68;;
49722;SDS011;43484;43.608;1.458;2023-11-19T06:55:54;22.63;;;12.52;;
49722;SDS011;43484;43.608;1.458;2023-11-19T06:58:20;20.45;;;11.27;;
49722;SDS011;43484;43.608;1.458;2023-11-19T07:00:47;19.90;;;10.82;;
49722;SDS011;43484;43.608;1.458;2023-11-19T07:03:16;18.67;;;11.73;;
49722;SDS011;43484;43.608;1.458;2023-11-19T07:05:42;19.95;;;11.82;;
49722;SDS011;43484;43.608;1.458;2023-11-19T07:08:10;23.17;;;10.75;;
49722;SDS011;43484;43.608;1.458;2023-11-19T07:10:37;19.83;;;10.82;;
49722;SDS011;43484;43.608;1.458;2023-11-19T07:13:03;14.93;;;9.80;;
49722;SDS011;43484;43.608;1.458;2023-11-19T07:15:32;17.23;;;10.88;;
49722;SDS011;43484;43.608;1.458;2023-11-19T07:17:59;17.08;;;10.68;;
49722;SDS011;43484;43.608;1.458;2023-11-19T07:20:28;17.52;;;10.18;;
49722;SDS011;43484;43.608;1.458;2023-11-19T07:22:54;17.50;;;10.48;;
49722;SDS011;43484;43.608;1.458;2023-11-19T07:25:23;20.17;;;11.90;;
49722;SDS011;43484;43.608;1.458;2023-11-19T07:27:51;18.15;;;12.30;;
49722;SDS011;43484;43.608;1.458;2023-11-19T07:30:18;16.90;;;10.65;;
49722;SDS011;43484;43.608;1.458;2023-11-19T07:32:44;19.50;;;11.00;;
49722;SDS011;43484;43.608;1.458;2023-11-19T07:35:11;24.85;;;10.95;;
49722;SDS011;43484;43.608;1.458;2023-11-19T07:37:38;21.10;;;10.52;;
49722;SDS011;43484;43.608;1.458;2023-11-19T07:40:05;19.23;;;10.60;;
49722;SDS011;43484;43.608;1.458;2023-11-19T07:42:32;17.30;;;10.68;;
49722;SDS011;43484;43.608;1.458;2023-11-19T07:44:58;19.52;;;11.05;;
49722;SDS011;43484;43.608;1.458;2023-11-19T07:47:25;20.63;;;12.48;;
49722;SDS011;43484;43.608;1.458;2023-11-19T07:49:51;23.15;;;11.60;;
49722;SDS011;43484;43.608;1.458;2023-11-19T07:52:18;16.63;;;10.70;;
49722;SDS011;43484;43.608;1.458;2023-11-19T07:54:47;18.58;;;11.10;;
49722;SDS011;43484;43.608;1.458;2023-11-19T07:57:14;20.58;;;12.32;;
49722;SDS011;43484;43.608;1.458;2023-11-19T07:59:41;23.42;;;11.82;;
49722;SDS011;43484;43.608;1.458;2023-11-19T08:02:07;20.35;;;11.63;;
49722;SDS011;43484;43.608;1.458;2023-11-19T08:04:34;19.08;;;11.38;;
49722;SDS011;43484;43.608;1.458;2023-11-19T08:07:01;20.27;;;10.50;;
49722;SDS011;43484;43.608;1.458;2023-11-19T08:09:27;18.38;;;11.02;;
49722;SDS011;43484;43.608;1.458;2023-11-19T08:11:54;17.63;;;10.30;;
49722;SDS011;43484;43.608;1.458;2023-11-19T08:14:22;15.10;;;9.52;;
49722;SDS011;43484;43.608;1.458;2023-11-19T08:16:50;14.63;;;9.40;;
49722;SDS011;43484;43.608;1.458;2023-11-19T08:19:17;17.95;;;9.88;;
49722;SDS011;43484;43.608;1.458;2023-11-19T08:21:43;19.42;;;10.65;;
49722;SDS011;43484;43.608;1.458;2023-11-19T08:24:10;21.60;;;10.20;;
49722;SDS011;43484;43.608;1.458;2023-11-19T08:26:36;14.50;;;9.68;;
49722;SDS011;43484;43.608;1.458;2023-11-19T08:29:03;17.15;;;9.70;;
49722;SDS011;43484;43.608;1.458;2023-11-19T08:31:29;17.30;;;10.10;;
49722;SDS011;43484;43.608;1.458;2023-11-19T08:33:56;13.48;;;8.65;;
49722;SDS011;43484;43.608;1.458;2023-11-19T08:36:22;18.13;;;10.05;;
49722;SDS011;43484;43.608;1.458;2023-11-19T08:38:49;18.13;;;9.07;;
49722;SDS011;43484;43.608;1.458;2023-11-19T08:41:18;14.60;;;9.80;;
49722;SDS011;43484;43.608;1.458;2023-11-19T08:43:45;15.35;;;9.20;;
49722;SDS011;43484;43.608;1.458;2023-11-19T08:46:12;15.57;;;9.15;;
49722;SDS011;43484;43.608;1.458;2023-11-19T08:48:39;21.08;;;9.75;;
49722;SDS011;43484;43.608;1.458;2023-11-19T08:51:05;15.93;;;10.02;;
49722;SDS011;43484;43.608;1.458;2023-11-19T08:53:32;15.95;;;10.40;;
49722;SDS011;43484;43.608;1.458;2023-11-19T08:55:59;20.27;;;10.50;;
49722;SDS011;43484;43.608;1.458;2023-11-19T08:58:26;22.20;;;11.25;;
49722;SDS011;43484;43.608;1.458;2023-11-19T09:00:53;14.15;;;9.68;;
49722;SDS011;43484;43.608;1.458;2023-11-19T09:03:19;15.45;;;9.40;;
49722;SDS011;43484;43.608;1.458;2023-11-19T09:05:47;14.32;;;10.10;;
49722;SDS011;43484;43.608;1.458;2023-11-19T09:08:13;15.52;;;10.80;;
49722;SDS011;43484;43.608;1.458;2023-11-19T09:10:40;22.67;;;11.40;;
49722;SDS011;43484;43.608;1.458;2023-11-19T09:13:06;19.45;;;11.18;;
49722;SDS011;43484;43.608;1.458;2023-11-19T09:15:33;24.02;;;9.85;;
49722;SDS011;43484;43.608;1.458;2023-11-19T09:17:59;19.58;;;10.63;;
49722;SDS011;43484;43.608;1.458;2023-11-19T09:20:26;17.15;;;9.82;;
49722;SDS011;43484;43.608;1.458;2023-11-19T09:22:52;19.17;;;9.93;;
49722;SDS011;43484;43.608;1.458;2023-11-19T09:25:19;13.82;;;9.30;;
49722;SDS011;43484;43.608;1.458;2023-11-19T09:27:46;17.05;;;9.43;;
49722;SDS011;43484;43.608;1.458;2023-11-19T09:30:12;14.55;;;9.55;;
49722;SDS011;43484;43.608;1.458;2023-11-19T09:32:39;15.07;;;9.65;;
49722;SDS011;43484;43.608;1.458;2023-11-19T09:35:07;16.08;;;9.07;;
49722;SDS011;43484;43.608;1.458;2023-11-19T09:37:33;25.10;;;9.57;;
49722;SDS011;43484;43.608;1.458;2023-11-19T09:40:00;15.85;;;9.52;;
49722;SDS011;43484;43.608;1.458;2023-11-19T09:42:26;14.77;;;8.02;;
49722;SDS011;43484;43.608;1.458;2023-11-19T09:44:53;12.90;;;8.82;;
49722;SDS011;43484;43.608;1.458;2023-11-19T09:47:21;16.98;;;9.38;;
49722;SDS011;43484;43.608;1.458;2023-11-19T09:49:48;18.17;;;8.38;;
49722;SDS011;43484;43.608;1.458;2023-11-19T09:52:15;12.45;;;7.95;;
49722;SDS011;43484;43.608;1.458;2023-11-19T09:54:42;10.95;;;8.00;;
49722;SDS011;43484;43.608;1.458;2023-11-19T09:57:08;20.20;;;9.45;;
49722;SDS011;43484;43.608;1.458;2023-11-19T09:59:36;15.25;;;9.65;;
49722;SDS011;43484;43.608;1.458;2023-11-19T10:02:03;15.65;;;9.23;;
49722;SDS011;43484;43.608;1.458;2023-11-19T10:04:30;13.10;;;9.07;;
49722;SDS011;43484;43.608;1.458;2023-11-19T10:06:58;13.07;;;9.18;;
49722;SDS011;43484;43.608;1.458;2023-11-19T10:09:25;14.63;;;9.38;;
49722;SDS011;43484;43.608;1.458;2023-11-19T10:11:51;15.60;;;8.85;;
49722;SDS011;43484;43.608;1.458;2023-11-19T10:14:19;14.43;;;9.05;;
49722;SDS011;43484;43.608;1.458;2023-11-19T10:16:47;13.80;;;8.75;;
49722;SDS011;43484;43.608;1.458;2023-11-19T10:19:20;17.23;;;8.98;;
49722;SDS011;43484;43.608;1.458;2023-11-19T10:21:47;10.95;;;8.05;;
49722;SDS011;43484;43.608;1.458;2023-11-19T10:24:14;16.48;;;8.68;;
49722;SDS011;43484;43.608;1.458;2023-11-19T10:26:56;17.75;;;8.98;;
49722;SDS011;43484;43.608;1.458;2023-11-19T10:29:23;16.65;;;9.57;;
49722;SDS011;43484;43.608;1.458;2023-11-19T10:31:56;17.50;;;9.63;;
49722;SDS011;43484;43.608;1.458;2023-11-19T10:34:43;17.15;;;9.40;;
49722;SDS011;43484;43.608;1.458;2023-11-19T10:37:26;15.18;;;10.30;;
49722;SDS011;43484;43.608;1.458;2023-11-19T10:39:53;15.32;;;9.55;;
49722;SDS011;43484;43.608;1.458;2023-11-19T10:42:20;19.08;;;9.27;;
49722;SDS011;43484;43.608;1.458;2023-11-19T10:44:47;17.00;;;9.13;;
49722;SDS011;43484;43.608;1.458;2023-11-19T10:47:13;22.90;;;9.52;;
49722;SDS011;43484;43.608;1.458;2023-11-19T10:49:41;21.33;;;9.75;;
49722;SDS011;43484;43.608;1.458;2023-11-19T10:52:08;22.98;;;10.50;;
49722;SDS011;43484;43.608;1.458;2023-11-19T10:54:35;25.73;;;12.30;;
49722;SDS011;43484;43.608;1.458;2023-11-19T10:57:01;22.77;;;11.02;;
49722;SDS011;43484;43.608;1.458;2023-11-19T10:59:29;17.00;;;8.32;;
49722;SDS011;43484;43.608;1.458;2023-11-19T11:02:00;17.98;;;9.05;;
49722;SDS011;43484;43.608;1.458;2023-11-19T11:04:30;13.13;;;7.75;;
49722;SDS011;43484;43.608;1.458;2023-11-19T11:06:58;17.33;;;8.02;;
49722;SDS011;43484;43.608;1.458;2023-11-19T11:09:28;12.80;;;7.82;;
49722;SDS011;43484;43.608;1.458;2023-11-19T11:11:55;12.25;;;7.80;;
49722;SDS011;43484;43.608;1.458;2023-11-19T11:14:24;12.32;;;7.45;;
49722;SDS011;43484;43.608;1.458;2023-11-19T11:16:50;13.00;;;7.68;;
49722;SDS011;43484;43.608;1.458;2023-11-19T11:19:17;11.25;;;7.32;;
49722;SDS011;43484;43.608;1.458;2023-11-19T11:21:46;11.20;;;6.10;;
49722;SDS011;43484;43.608;1.458;2023-11-19T11:24:39;15.10;;;6.70;;
49722;SDS011;43484;43.608;1.458;2023-11-19T11:29:59;10.75;;;6.47;;
49722;SDS011;43484;43.608;1.458;2023-11-19T11:37:45;11.10;;;5.03;;
49722;SDS011;43484;43.608;1.458;2023-11-19T11:40:14;9.75;;;4.65;;
49722;SDS011;43484;43.608;1.458;2023-11-19T11:42:42;7.45;;;3.90;;
49722;SDS011;43484;43.608;1.458;2023-11-19T11:45:11;12.70;;;5.85;;
49722;SDS011;43484;43.608;1.458;2023-11-19T11:50:10;11.52;;;5.55;;
49722;SDS011;43484;43.608;1.458;2023-11-19T11:57:50;9.60;;;4.75;;
49722;SDS011;43484;43.608;1.458;2023-11-19T12:00:26;10.98;;;5.43;;
49722;SDS011;43484;43.608;1.458;2023-11-19T12:02:56;9.35;;;5.70;;
49722;SDS011;43484;43.608;1.458;2023-11-19T12:05:23;9.07;;;6.28;;
49722;SDS011;43484;43.608;1.458;2023-11-19T12:07:56;13.98;;;5.78;;
49722;SDS011;43484;43.608;1.458;2023-11-19T12:10:24;9.65;;;5.18;;
49722;SDS011;43484;43.608;1.458;2023-11-19T12:12:57;6.88;;;5.07;;
49722;SDS011;43484;43.608;1.458;2023-11-19T12:15:24;11.20;;;4.97;;
49722;SDS011;43484;43.608;1.458;2023-11-19T12:17:51;7.93;;;5.78;;
49722;SDS011;43484;43.608;1.458;2023-11-19T12:20:19;9.45;;;5.25;;
49722;SDS011;43484;43.608;1.458;2023-11-19T12:22:48;9.65;;;6.07;;
49722;SDS011;43484;43.608;1.458;2023-11-19T12:25:16;9.38;;;5.75;;
49722;SDS011;43484;43.608;1.458;2023-11-19T12:27:49;11.13;;;6.05;;
49722;SDS011;43484;43.608;1.458;2023-11-19T12:30:23;17.10;;;7.13;;
49722;SDS011;43484;43.608;1.458;2023-11-19T12:32:53;13.27;;;6.78;;
49722;SDS011;43484;43.608;1.458;2023-11-19T12:35:20;13.98;;;6.47;;
49722;SDS011;43484;43.608;1.458;2023-11-19T12:37:48;9.77;;;6.45;;
49722;SDS011;43484;43.608;1.458;2023-11-19T12:40:15;17.40;;;6.18;;
49722;SDS011;43484;43.608;1.458;2023-11-19T12:42:44;10.95;;;5.40;;
49722;SDS011;43484;43.608;1.458;2023-11-19T12:45:10;8.80;;;4.68;;
49722;SDS011;43484;43.608;1.458;2023-11-19T12:47:38;11.85;;;4.85;;
49722;SDS011;43484;43.608;1.458;2023-11-19T12:50:04;10.55;;;5.32;;
49722;SDS011;43484;43.608;1.458;2023-11-19T12:52:31;8.80;;;4.60;;
49722;SDS011;43484;43.608;1.458;2023-11-19T12:54:57;8.25;;;3.83;;
49722;SDS011;43484;43.608;1.458;2023-11-19T12:57:40;11.20;;;4.10;;
49722;SDS011;43484;43.608;1.458;2023-11-19T13:00:07;8.70;;;3.80;;
49722;SDS011;43484;43.608;1.458;2023-11-19T13:02:50;7.45;;;3.90;;
49722;SDS011;43484;43.608;1.458;2023-11-19T13:05:21;8.52;;;4.40;;
49722;SDS011;43484;43.608;1.458;2023-11-19T13:07:47;9.48;;;4.22;;
49722;SDS011;43484;43.608;1.458;2023-11-19T13:10:14;6.47;;;3.78;;
49722;SDS011;43484;43.608;1.458;2023-11-19T13:12:59;6.70;;;3.17;;
49722;SDS011;43484;43.608;1.458;2023-11-19T13:15:25;8.43;;;3.65;;
49722;SDS011;43484;43.608;1.458;2023-11-19T13:17:52;7.53;;;3.03;;
49722;SDS011;43484;43.608;1.458;2023-11-19T13:20:19;9.07;;;3.35;;
49722;SDS011;43484;43.608;1.458;2023-11-19T13:22:54;5.07;;;2.92;;
49722;SDS011;43484;43.608;1.458;2023-11-19T13:25:20;4.30;;;2.47;;
49722;SDS011;43484;43.608;1.458;2023-11-19T13:27:47;8.45;;;3.15;;
49722;SDS011;43484;43.608;1.458;2023-11-19T13:30:13;9.02;;;2.97;;
49722;SDS011;43484;43.608;1.458;2023-11-19T13:32:43;4.82;;;2.72;;
49722;SDS011;43484;43.608;1.458;2023-11-19T13:35:10;5.00;;;2.55;;
49722;SDS011;43484;43.608;1.458;2023-11-19T13:37:37;4.25;;;2.50;;
49722;SDS011;43484;43.608;1.458;2023-11-19T13:40:04;6.32;;;2.80;;
49722;SDS011;43484;43.608;1.458;2023-11-19T13:42:31;7.85;;;2.80;;
49722;SDS011;43484;43.608;1.458;2023-11-19T13:44:57;11.20;;;3.20;;
49722;SDS011;43484;43.608;1.458;2023-11-19T13:47:23;8.80;;;3.03;;
49722;SDS011;43484;43.608;1.458;2023-11-19T13:49:50;9.40;;;3.40;;
49722;SDS011;43484;43.608;1.458;2023-11-19T13:52:16;8.27;;;2.83;;
49722;SDS011;43484;43.608;1.458;2023-11-19T13:54:43;5.35;;;2.97;;
49722;SDS011;43484;43.608;1.458;2023-11-19T13:57:09;6.53;;;3.50;;
49722;SDS011;43484;43.608;1.458;2023-11-19T13:59:39;8.02;;;2.80;;
49722;SDS011;43484;43.608;1.458;2023-11-19T14:03:15;11.15;;;3.50;;
49722;SDS011;43484;43.608;1.458;2023-11-19T14:05:42;5.22;;;2.70;;
49722;SDS011;43484;43.608;1.458;2023-11-19T14:08:08;7.70;;;2.83;;
49722;SDS011;43484;43.608;1.458;2023-11-19T14:10:50;5.35;;;2.80;;
49722;SDS011;43484;43.608;1.458;2023-11-19T14:13:17;4.65;;;2.85;;
49722;SDS011;43484;43.608;1.458;2023-11-19T14:15:44;8.55;;;2.70;;
49722;SDS011;43484;43.608;1.458;2023-11-19T14:18:15;7.25;;;2.78;;
49722;SDS011;43484;43.608;1.458;2023-11-19T14:20:41;4.13;;;2.63;;
49722;SDS011;43484;43.608;1.458;2023-11-19T14:23:09;7.70;;;2.50;;
49722;SDS011;43484;43.608;1.458;2023-11-19T14:25:35;6.05;;;2.53;;
49722;SDS011;43484;43.608;1.458;2023-11-19T14:28:03;8.45;;;2.63;;
49722;SDS011;43484;43.608;1.458;2023-11-19T14:30:32;3.60;;;2.17;;
49722;SDS011;43484;43.608;1.458;2023-11-19T14:32:58;5.68;;;2.25;;
49722;SDS011;43484;43.608;1.458;2023-11-19T14:35:25;4.05;;;1.88;;
49722;SDS011;43484;43.608;1.458;2023-11-19T14:37:52;8.15;;;2.10;;
49722;SDS011;43484;43.608;1.458;2023-11-19T14:40:19;7.55;;;2.00;;
49722;SDS011;43484;43.608;1.458;2023-11-19T14:42:45;3.33;;;1.92;;
49722;SDS011;43484;43.608;1.458;2023-11-19T14:45:12;3.25;;;2.30;;
49722;SDS011;43484;43.608;1.458;2023-11-19T14:47:39;6.38;;;1.92;;
49722;SDS011;43484;43.608;1.458;2023-11-19T14:50:06;6.47;;;2.17;;